Time;durP1;ratioP1;P1;durP2;ratioP2;P2;SDS_P1;SDS_P2;PMS_P1;PMS_P2;Temp;Humidity;BMP_temperature;BMP_pressure;BME280_temperature;BME280_humidity;BME280_pressure;Samples;Min_cycle;Max_cycle;Signal;HPM_P1;HPM_P2
2022/01/19 00:00:37;;;;;;;29.35;16.27;;;4.60;99.90;;;;;;5027960;28;20045;-84
2022/01/19 00:03:04;;;;;;;31.10;15.75;;;4.60;99.90;;;;;;5006985;28;20037;-84
2022/01/19 00:05:29;;;;;;;29.73;15.95;;;4.60;99.90;;;;;;5032121;28;20052;-85
2022/01/19 00:07:55;;;;;;;30.20;16.02;;;5.70;99.90;;;;;;5018570;28;20486;-84
2022/01/19 00:10:27;;;;;;;30.33;15.68;;;4.50;99.90;;;;;;4998036;28;20041;-84
2022/01/19 00:12:57;;;;;;;30.10;15.43;;;4.70;99.90;;;;;;5005921;28;20049;-84
2022/01/19 00:15:24;;;;;;;27.58;14.80;;;6.10;99.90;;;;;;5010490;28;20132;-84
2022/01/19 00:17:54;;;;;;;25.70;13.18;;;4.50;99.90;;;;;;5025320;28;20049;-84
2022/01/19 00:20:22;;;;;;;25.33;12.57;;;6.10;99.90;;;;;;5010505;28;20037;-84
2022/01/19 00:22:48;;;;;;;28.52;14.02;;;5.80;99.90;;;;;;5022026;28;20072;-84
2022/01/19 00:25:14;;;;;;;28.90;14.43;;;5.00;99.90;;;;;;5033421;28;20069;-84
2022/01/19 00:27:40;;;;;;;27.55;13.63;;;4.40;99.90;;;;;;5023041;28;20089;-84
2022/01/19 00:30:07;;;;;;;32.28;14.32;;;5.60;99.90;;;;;;5007254;28;20517;-84
2022/01/19 00:32:33;;;;;;;34.13;15.43;;;4.40;99.90;;;;;;5008014;28;20107;-84
2022/01/19 00:34:59;;;;;;;33.60;15.65;;;4.40;99.90;;;;;;5010195;28;20106;-85
2022/01/19 00:37:25;;;;;;;35.67;15.45;;;4.40;99.90;;;;;;5035974;28;20516;-84
2022/01/19 00:39:51;;;;;;;36.22;15.57;;;4.40;99.90;;;;;;5006631;28;20037;-85
2022/01/19 00:42:18;;;;;;;35.42;15.90;;;4.90;99.90;;;;;;5023491;28;20120;-85
2022/01/19 00:44:44;;;;;;;37.17;15.48;;;4.40;99.90;;;;;;5016448;28;20083;-84
2022/01/19 00:47:09;;;;;;;42.63;16.65;;;4.40;99.90;;;;;;5009928;28;20044;-84
2022/01/19 00:49:35;;;;;;;39.80;16.35;;;4.40;99.90;;;;;;5010848;28;20103;-84
2022/01/19 00:52:01;;;;;;;39.95;17.08;;;6.00;99.90;;;;;;5041466;28;20073;-85
2022/01/19 00:54:27;;;;;;;39.28;17.35;;;4.40;99.90;;;;;;5041408;28;20117;-84
2022/01/19 00:56:53;;;;;;;43.55;17.48;;;6.40;99.90;;;;;;5013268;28;20034;-84
2022/01/19 00:59:18;;;;;;;45.47;18.48;;;4.40;99.90;;;;;;5038863;28;20381;-85
2022/01/19 01:01:44;;;;;;;45.95;18.20;;;4.40;99.90;;;;;;5019253;28;20044;-84
2022/01/19 01:04:10;;;;;;;41.38;17.40;;;5.60;99.90;;;;;;5012260;28;20037;-84
2022/01/19 01:06:36;;;;;;;46.08;18.58;;;5.60;99.90;;;;;;5000808;28;20124;-85
2022/01/19 01:09:03;;;;;;;51.60;19.35;;;4.50;99.90;;;;;;5007424;28;20034;-84
2022/01/19 01:11:32;;;;;;;43.10;19.10;;;4.50;99.90;;;;;;5027384;28;20041;-84
2022/01/19 01:17:08;;;;;;;44.78;19.00;;;6.00;99.90;;;;;;5018995;28;20064;-85
2022/01/19 01:19:24;;;;;;;46.47;19.17;;;5.50;99.90;;;;;;5029124;28;20036;-85
2022/01/19 01:21:50;;;;;;;47.47;19.23;;;5.90;99.90;;;;;;5021801;28;20129;-84
2022/01/19 01:24:16;;;;;;;43.38;17.55;;;5.70;99.90;;;;;;5023344;28;20545;-84
2022/01/19 01:26:42;;;;;;;46.15;19.52;;;4.50;99.90;;;;;;5026905;28;20136;-84
2022/01/19 01:29:07;;;;;;;44.63;18.92;;;4.50;99.90;;;;;;5021296;28;21151;-84
2022/01/19 01:31:33;;;;;;;45.45;19.40;;;5.00;99.90;;;;;;5039688;28;20387;-85
2022/01/19 01:33:59;;;;;;;48.00;20.60;;;5.30;99.90;;;;;;5026168;28;20052;-84
2022/01/19 01:36:25;;;;;;;48.40;19.65;;;4.50;99.90;;;;;;5021642;28;20037;-84
2022/01/19 01:38:50;;;;;;;46.30;20.98;;;4.50;99.90;;;;;;5008007;28;20037;-84
2022/01/19 01:41:16;;;;;;;57.03;22.13;;;4.90;99.90;;;;;;4996546;28;20083;-85
2022/01/19 01:43:44;;;;;;;48.33;20.80;;;6.20;99.90;;;;;;5012951;28;20406;-85
2022/01/19 01:46:20;;;;;;;49.33;21.23;;;4.50;99.90;;;;;;5025215;28;20404;-85
2022/01/19 01:48:47;;;;;;;48.90;21.00;;;4.50;99.90;;;;;;5038378;28;20037;-84
2022/01/19 01:53:59;;;;;;;49.80;20.20;;;4.50;99.90;;;;;;5034804;28;20095;-84
2022/01/19 01:56:25;;;;;;;51.83;21.10;;;4.50;99.90;;;;;;5006646;28;20095;-84
2022/01/19 01:58:51;;;;;;;48.70;20.52;;;5.60;99.90;;;;;;5042941;28;20033;-84
2022/01/19 02:01:17;;;;;;;49.80;21.63;;;6.10;99.90;;;;;;5018171;28;20041;-84
2022/01/19 02:03:44;;;;;;;49.17;21.75;;;6.10;99.90;;;;;;5033571;28;20051;-84
2022/01/19 02:09:01;;;;;;;50.78;21.20;;;6.00;99.90;;;;;;5036427;28;20398;-84
2022/01/19 02:22:12;;;;;;;48.35;20.95;;;4.50;99.90;;;;;;5037958;28;20536;-85
2022/01/19 02:24:44;;;;;;;46.45;20.67;;;4.50;99.90;;;;;;5026324;28;20415;-84
2022/01/19 02:40:57;;;;;;;55.22;21.48;;;5.00;99.90;;;;;;5027963;28;20099;-85
2022/01/19 02:43:25;;;;;;;55.10;22.00;;;5.90;99.90;;;;;;5018790;28;20052;-84
2022/01/19 02:51:20;;;;;;;61.05;22.08;;;4.50;99.90;;;;;;5031791;28;20136;-84
2022/01/19 02:53:46;;;;;;;63.03;22.85;;;5.10;99.90;;;;;;5027279;28;20115;-85
2022/01/19 02:56:20;;;;;;;59.67;22.73;;;5.50;99.90;;;;;;5004507;28;20076;-84
2022/01/19 02:58:59;;;;;;;60.03;23.65;;;4.50;99.90;;;;;;5019375;28;20524;-84
2022/01/19 03:09:22;;;;;;;54.13;21.63;;;5.90;99.90;;;;;;5023943;28;20210;-84
2022/01/19 03:11:48;;;;;;;54.35;21.92;;;4.90;99.90;;;;;;5038043;28;20049;-84
2022/01/19 03:14:14;;;;;;;54.63;21.08;;;6.10;99.90;;;;;;5018604;28;20037;-84
2022/01/19 03:16:40;;;;;;;60.30;21.73;;;5.10;99.90;;;;;;5007150;28;20443;-84
2022/01/19 03:19:08;;;;;;;50.85;19.98;;;4.60;99.90;;;;;;5018124;28;20044;-84
2022/01/19 03:21:34;;;;;;;48.90;21.38;;;4.50;99.90;;;;;;5004181;28;20487;-84
2022/01/19 03:24:00;;;;;;;49.97;20.15;;;4.50;99.90;;;;;;5018708;28;20056;-84
2022/01/19 03:26:27;;;;;;;47.55;19.25;;;4.50;99.90;;;;;;5037929;28;20215;-85
2022/01/19 03:28:53;;;;;;;51.30;21.00;;;5.20;99.90;;;;;;5000989;28;20040;-85
2022/01/19 03:31:19;;;;;;;48.10;20.48;;;4.50;99.90;;;;;;5005029;28;20040;-85
2022/01/19 03:33:45;;;;;;;52.35;20.55;;;5.60;99.90;;;;;;5005694;28;20087;-84
2022/01/19 03:36:11;;;;;;;45.55;19.83;;;5.70;99.90;;;;;;5038035;28;20041;-84
2022/01/19 03:38:37;;;;;;;49.78;20.45;;;5.30;99.90;;;;;;5008649;28;20401;-84
2022/01/19 03:41:03;;;;;;;50.33;21.65;;;4.40;99.90;;;;;;5008681;28;20233;-84
2022/01/19 03:43:28;;;;;;;50.67;20.80;;;5.30;99.90;;;;;;5014098;28;20099;-84
2022/01/19 03:45:57;;;;;;;47.85;21.42;;;4.40;99.90;;;;;;5007421;28;20087;-85
2022/01/19 03:51:03;;;;;;;49.35;21.45;;;4.40;99.90;;;;;;5014166;28;20048;-84
2022/01/19 03:53:30;;;;;;;51.08;20.75;;;4.40;99.90;;;;;;5003035;28;20041;-84
2022/01/19 03:55:56;;;;;;;44.90;20.10;;;4.40;99.90;;;;;;5028598;28;20553;-84
2022/01/19 03:58:22;;;;;;;45.58;21.83;;;5.30;99.90;;;;;;5002513;28;20079;-83
2022/01/19 04:00:53;;;;;;;50.30;22.42;;;4.40;99.90;;;;;;5014501;28;20095;-84
2022/01/19 04:03:23;;;;;;;48.22;21.98;;;4.40;99.90;;;;;;5024554;28;20033;-84
2022/01/19 04:08:14;;;;;;;51.75;21.05;;;4.40;99.90;;;;;;5031768;28;20518;-84
2022/01/19 04:10:40;;;;;;;53.10;23.35;;;5.50;99.90;;;;;;4991548;28;20584;-84
2022/01/19 04:13:31;;;;;;;57.92;22.98;;;6.20;99.90;;;;;;5004422;28;20374;-84
2022/01/19 04:15:54;;;;;;;59.08;23.45;;;4.40;99.90;;;;;;5025367;28;20052;-84
2022/01/19 04:18:20;;;;;;;51.53;23.50;;;4.90;99.90;;;;;;5039488;28;20042;-85
2022/01/19 04:20:50;;;;;;;52.65;22.60;;;4.40;99.90;;;;;;5043714;28;20478;-84
2022/01/19 04:23:17;;;;;;;54.17;23.67;;;5.40;99.90;;;;;;5042814;28;20544;-85
2022/01/19 04:25:43;;;;;;;64.50;25.30;;;5.50;99.90;;;;;;5002763;28;20103;-85
2022/01/19 04:28:09;;;;;;;58.38;23.48;;;4.80;99.90;;;;;;5027177;28;20136;-84
2022/01/19 04:30:36;;;;;;;59.13;23.85;;;4.50;99.90;;;;;;5039697;28;20115;-84
2022/01/19 04:35:33;;;;;;;53.50;23.70;;;5.70;99.90;;;;;;5023765;28;20123;-85
2022/01/19 05:15:05;;;;;;;51.28;24.55;;;5.20;99.90;;;;;;5026954;28;20414;-85
2022/01/19 05:17:31;;;;;;;47.65;24.13;;;4.50;99.90;;;;;;5005381;28;20045;-84
2022/01/19 05:19:57;;;;;;;46.72;22.85;;;4.40;99.90;;;;;;5018682;28;20037;-85
2022/01/19 05:22:22;;;;;;;53.13;23.85;;;4.50;99.90;;;;;;5014093;28;20033;-84
2022/01/19 05:24:48;;;;;;;47.28;21.92;;;5.20;99.90;;;;;;5010582;28;20431;-85
2022/01/19 05:27:14;;;;;;;50.90;24.20;;;4.40;99.90;;;;;;5015491;28;20103;-85
2022/01/19 05:29:40;;;;;;;47.30;21.60;;;4.50;99.90;;;;;;5016731;28;20139;-85
2022/01/19 05:32:06;;;;;;;45.47;22.15;;;4.70;99.90;;;;;;5036141;28;20045;-84
2022/01/19 05:34:32;;;;;;;47.00;22.75;;;4.50;99.90;;;;;;5013213;28;20069;-84
2022/01/19 05:36:57;;;;;;;48.50;22.38;;;5.80;99.90;;;;;;5041137;28;20119;-84
2022/01/19 05:39:23;;;;;;;48.08;22.80;;;4.40;99.90;;;;;;5038804;28;20521;-84
2022/01/19 05:41:49;;;;;;;49.17;22.83;;;5.90;99.90;;;;;;5006631;28;20048;-84
2022/01/19 05:44:14;;;;;;;46.67;23.90;;;4.80;99.90;;;;;;5015410;28;20045;-84
2022/01/19 05:46:40;;;;;;;44.70;23.02;;;4.80;99.90;;;;;;5020908;28;20348;-84
2022/01/19 05:49:06;;;;;;;50.13;23.90;;;5.80;99.90;;;;;;5024290;28;20457;-84
2022/01/19 05:51:32;;;;;;;51.08;23.63;;;5.60;99.90;;;;;;5016628;28;20093;-85
2022/01/19 05:53:58;;;;;;;48.47;22.65;;;4.40;99.90;;;;;;5012464;28;20069;-85
2022/01/19 05:56:24;;;;;;;45.78;22.65;;;5.90;99.90;;;;;;5036637;28;20044;-84
2022/01/19 05:58:49;;;;;;;44.28;23.17;;;4.40;99.90;;;;;;5005747;28;20502;-84
2022/01/19 06:01:15;;;;;;;45.80;22.85;;;4.40;99.90;;;;;;5010498;28;20029;-85
2022/01/19 06:03:41;;;;;;;48.55;23.38;;;4.40;99.90;;;;;;5005265;28;20037;-84
2022/01/19 06:06:06;;;;;;;41.22;22.48;;;4.40;99.90;;;;;;5038798;28;20251;-85
2022/01/19 06:11:07;;;;;;;48.58;22.67;;;4.40;99.90;;;;;;5020777;28;20064;-84
2022/01/19 06:13:33;;;;;;;46.25;22.38;;;4.40;99.90;;;;;;5038585;28;20068;-84
2022/01/19 06:15:59;;;;;;;50.60;24.33;;;5.50;99.90;;;;;;5023621;28;20178;-84
2022/01/19 06:18:24;;;;;;;49.47;24.13;;;4.40;99.90;;;;;;5020985;28;20060;-84
2022/01/19 06:20:50;;;;;;;46.25;22.95;;;5.80;99.90;;;;;;5002835;28;20453;-85
2022/01/19 06:23:16;;;;;;;43.40;24.23;;;5.20;99.90;;;;;;5038850;28;20044;-84
2022/01/19 06:25:42;;;;;;;40.97;22.63;;;4.90;99.90;;;;;;5019904;28;20056;-84
2022/01/19 06:28:08;;;;;;;48.10;23.13;;;;;;;;;;5022549;28;20545;-84
2022/01/19 06:30:34;;;;;;;41.53;22.65;;;4.30;99.90;;;;;;5026808;28;20044;-84
2022/01/19 06:33:00;;;;;;;46.13;23.00;;;4.30;99.90;;;;;;5020109;28;20040;-84
2022/01/19 06:35:26;;;;;;;46.25;22.55;;;4.30;99.90;;;;;;5006144;28;20057;-85
2022/01/19 06:37:51;;;;;;;48.97;22.20;;;4.30;99.90;;;;;;5018724;28;20045;-85
2022/01/19 06:40:18;;;;;;;43.42;22.20;;;5.50;99.90;;;;;;5025036;28;20029;-84
2022/01/19 06:42:45;;;;;;;44.08;21.77;;;5.50;99.90;;;;;;5017708;28;20043;-85
2022/01/19 06:45:12;;;;;;;45.03;22.35;;;4.30;99.90;;;;;;5038136;28;20033;-84
2022/01/19 06:47:39;;;;;;;42.00;21.65;;;4.20;99.90;;;;;;5016772;28;20041;-84
2022/01/19 06:50:08;;;;;;;44.65;22.25;;;4.60;99.90;;;;;;5036514;28;20037;-84
2022/01/19 06:52:34;;;;;;;44.15;21.95;;;4.30;99.90;;;;;;5020581;28;20051;-84
2022/01/19 06:54:59;;;;;;;46.47;22.65;;;5.30;99.90;;;;;;5038014;28;20041;-84
2022/01/19 06:57:25;;;;;;;47.70;23.20;;;5.60;99.90;;;;;;5023826;28;20311;-84
2022/01/19 06:59:51;;;;;;;46.47;23.17;;;;;;;;;;5009202;28;20542;-84
2022/01/19 07:02:20;;;;;;;42.67;22.63;;;4.30;99.90;;;;;;5039771;28;20398;-84
2022/01/19 07:04:49;;;;;;;44.90;22.85;;;5.40;99.90;;;;;;5011142;28;20049;-85
2022/01/19 07:07:17;;;;;;;50.83;22.70;;;5.00;99.90;;;;;;5018959;28;20198;-86
2022/01/19 07:09:43;;;;;;;48.65;22.98;;;4.30;99.90;;;;;;5028052;28;20132;-86
2022/01/19 07:12:10;;;;;;;47.13;23.10;;;5.40;99.90;;;;;;5003161;28;20033;-86
2022/01/19 07:14:35;;;;;;;51.30;24.25;;;4.30;99.90;;;;;;5015745;28;20044;-85
2022/01/19 07:17:01;;;;;;;44.00;22.40;;;4.30;99.90;;;;;;5004366;28;20136;-86
2022/01/19 07:19:28;;;;;;;49.20;22.92;;;4.30;99.90;;;;;;5003950;28;20107;-85
2022/01/19 07:21:54;;;;;;;45.08;22.67;;;4.30;99.90;;;;;;5016319;28;20038;-86
2022/01/19 07:24:20;;;;;;;45.38;23.27;;;5.10;99.90;;;;;;5019324;28;20121;-87
2022/01/19 07:26:46;;;;;;;43.05;21.30;;;5.90;99.90;;;;;;5034340;28;20117;-88
2022/01/19 07:29:13;;;;;;;43.65;22.48;;;6.00;99.90;;;;;;5022163;28;20045;-85
2022/01/19 07:31:39;;;;;;;44.85;22.33;;;4.30;99.90;;;;;;5002876;28;20047;-86
2022/01/19 07:34:05;;;;;;;48.33;23.02;;;5.20;99.90;;;;;;5024679;28;20556;-86
2022/01/19 07:36:31;;;;;;;44.97;22.48;;;5.60;99.90;;;;;;5023402;28;20044;-86
2022/01/19 07:38:57;;;;;;;49.75;23.30;;;5.00;99.90;;;;;;5036477;28;20047;-86
2022/01/19 07:41:22;;;;;;;43.95;22.73;;;4.30;99.90;;;;;;5004549;28;20048;-86
2022/01/19 07:43:48;;;;;;;43.03;22.48;;;6.30;99.90;;;;;;5007938;28;20037;-87
2022/01/19 07:46:16;;;;;;;44.42;23.25;;;4.30;99.90;;;;;;5038152;28;20061;-85
2022/01/19 07:48:41;;;;;;;45.08;23.02;;;5.40;99.90;;;;;;5007591;28;20037;-85
2022/01/19 07:51:07;;;;;;;47.58;23.50;;;4.30;99.90;;;;;;5030306;28;20117;-86
2022/01/19 07:53:33;;;;;;;48.20;23.60;;;5.90;99.90;;;;;;5013815;28;20034;-85
2022/01/19 07:55:59;;;;;;;43.85;22.90;;;4.40;99.90;;;;;;4995061;28;20045;-86
2022/01/19 07:58:25;;;;;;;51.25;24.10;;;4.90;99.90;;;;;;5010106;28;20055;-87
2022/01/19 08:00:51;;;;;;;47.15;23.65;;;4.40;99.90;;;;;;5023762;28;20062;-85
2022/01/19 08:03:17;;;;;;;47.92;24.10;;;5.40;99.90;;;;;;5034747;28;20120;-85
2022/01/19 08:05:44;;;;;;;51.60;23.27;;;4.40;99.90;;;;;;5021781;28;20025;-87
2022/01/19 08:08:10;;;;;;;45.88;23.92;;;5.30;99.90;;;;;;5012504;28;20038;-85
2022/01/19 08:10:35;;;;;;;52.22;24.20;;;4.80;99.90;;;;;;5009054;28;20048;-86
2022/01/19 08:13:03;;;;;;;49.58;24.02;;;4.40;99.90;;;;;;5057653;28;20025;-87
2022/01/19 08:15:30;;;;;;;50.15;25.13;;;4.40;99.90;;;;;;5010994;28;20136;-87
2022/01/19 08:17:56;;;;;;;47.17;24.17;;;5.60;99.90;;;;;;5040432;28;20061;-86
2022/01/19 08:20:22;;;;;;;49.53;24.90;;;4.60;99.90;;;;;;5034370;28;20052;-88
2022/01/19 08:22:48;;;;;;;51.60;25.25;;;4.40;99.90;;;;;;5021311;28;20483;-85
2022/01/19 08:25:14;;;;;;;50.30;24.30;;;4.50;99.90;;;;;;5040594;28;20099;-87
2022/01/19 08:27:40;;;;;;;50.00;25.02;;;4.40;99.90;;;;;;5009605;28;20044;-88
2022/01/19 08:30:08;;;;;;;49.70;24.92;;;4.40;99.90;;;;;;5014330;28;20045;-89
2022/01/19 08:32:36;;;;;;;48.00;25.45;;;4.50;99.90;;;;;;5008622;28;20044;-88
2022/01/19 08:35:05;;;;;;;54.65;26.00;;;4.50;99.90;;;;;;5005234;28;20041;-86
2022/01/19 08:37:31;;;;;;;52.15;25.55;;;4.50;99.90;;;;;;5038375;28;20247;-87
2022/01/19 08:39:57;;;;;;;53.05;25.33;;;4.50;99.90;;;;;;5024005;28;20194;-87
2022/01/19 08:42:23;;;;;;;47.30;25.67;;;4.50;99.90;;;;;;5014745;28;20042;-86
2022/01/19 08:44:49;;;;;;;52.10;25.73;;;4.50;99.90;;;;;;5007109;28;20041;-89
2022/01/19 08:47:15;;;;;;;51.15;25.52;;;4.50;99.90;;;;;;5009418;28;20033;-88
2022/01/19 08:49:49;;;;;;;50.30;26.00;;;4.50;99.90;;;;;;4989514;28;20041;-89
2022/01/19 08:52:19;;;;;;;51.53;25.70;;;6.20;99.90;;;;;;5008497;28;20052;-87
2022/01/19 08:54:47;;;;;;;47.85;25.52;;;6.60;99.90;;;;;;5011387;28;20536;-88
2022/01/19 08:57:13;;;;;;;49.35;24.50;;;4.90;99.90;;;;;;4998217;28;20068;-86
2022/01/19 08:59:39;;;;;;;50.97;24.92;;;6.20;99.90;;;;;;5036337;28;20063;-87
2022/01/19 09:02:06;;;;;;;47.58;25.00;;;4.60;99.90;;;;;;5036033;28;20280;-86
2022/01/19 09:04:32;;;;;;;50.85;25.35;;;6.20;99.90;;;;;;5025479;28;20076;-89
2022/01/19 09:07:00;;;;;;;52.88;25.20;;;4.70;99.90;;;;;;5038539;28;20478;-89
2022/01/19 09:09:26;;;;;;;46.38;25.85;;;4.70;99.90;;;;;;5006833;28;20107;-86
2022/01/19 09:11:52;;;;;;;56.58;26.70;;;5.60;99.90;;;;;;5013291;28;20518;-86
2022/01/19 09:14:18;;;;;;;56.22;25.45;;;5.70;99.90;;;;;;5022474;28;20049;-87
2022/01/19 09:16:45;;;;;;;45.25;24.42;;;6.10;99.90;;;;;;5021900;28;20045;-88
2022/01/19 09:19:12;;;;;;;50.05;25.45;;;6.10;99.90;;;;;;5005814;28;20490;-88
2022/01/19 09:21:38;;;;;;;50.70;25.80;;;5.60;99.90;;;;;;5010536;28;20041;-86
2022/01/19 09:24:04;;;;;;;45.90;24.63;;;6.10;99.90;;;;;;5027951;28;20056;-86
2022/01/19 09:26:30;;;;;;;54.00;25.35;;;4.90;99.90;;;;;;5001375;28;20033;-85
2022/01/19 09:28:57;;;;;;;45.67;24.23;;;4.90;99.90;;;;;;5046935;28;20060;-86
2022/01/19 09:31:24;;;;;;;46.40;24.13;;;5.10;99.90;;;;;;5008558;28;20052;-87
2022/01/19 09:34:02;;;;;;;53.90;25.50;;;5.00;99.90;;;;;;5030566;28;20553;-87
2022/01/19 09:36:34;;;;;;;48.28;25.92;;;6.80;99.90;;;;;;5026065;28;20502;-86
2022/01/19 09:39:00;;;;;;;48.80;25.40;;;5.10;99.90;;;;;;5007112;28;20056;-87
2022/01/19 09:41:27;;;;;;;51.22;25.35;;;6.60;99.90;;;;;;5028779;28;20489;-86
2022/01/19 09:43:53;;;;;;;45.45;24.25;;;5.10;99.90;;;;;;5020050;28;20088;-86
2022/01/19 09:46:18;;;;;;;51.08;25.30;;;5.10;99.90;;;;;;5022669;28;20075;-85
2022/01/19 09:48:44;;;;;;;52.85;26.67;;;6.10;99.90;;;;;;5014360;28;20065;-88
2022/01/19 09:51:12;;;;;;;50.10;25.73;;;5.60;99.90;;;;;;5037528;28;20491;-88
2022/01/19 09:53:38;;;;;;;47.85;25.05;;;5.20;99.90;;;;;;5005461;28;20029;-86
2022/01/19 09:56:04;;;;;;;49.83;26.13;;;5.20;99.90;;;;;;5016792;28;20520;-85
2022/01/19 09:58:29;;;;;;;47.85;26.27;;;5.20;99.90;;;;;;5030104;28;20548;-87
2022/01/19 10:00:57;;;;;;;47.58;24.08;;;5.10;99.90;;;;;;5008100;28;20044;-86
2022/01/19 10:03:29;;;;;;;48.75;24.95;;;5.10;99.90;;;;;;5019602;28;20064;-86
2022/01/19 10:06:05;;;;;;;44.92;24.50;;;5.20;99.90;;;;;;5025395;28;20355;-86
2022/01/19 10:08:40;;;;;;;42.88;23.80;;;5.10;99.90;;;;;;5029757;28;20043;-86
2022/01/19 10:11:27;;;;;;;46.58;24.52;;;5.10;99.90;;;;;;5025735;28;20124;-86
2022/01/19 10:17:09;;;;;;;50.28;25.38;;;5.10;99.90;;;;;;5021287;28;20475;-86
2022/01/19 10:19:37;;;;;;;44.92;25.05;;;6.40;99.90;;;;;;5045016;28;20082;-86
2022/01/19 10:22:18;;;;;;;44.08;25.25;;;5.00;99.90;;;;;;5041332;28;20033;-87
2022/01/19 10:24:57;;;;;;;45.70;26.15;;;5.00;99.90;;;;;;5019627;28;20513;-88
2022/01/19 10:27:36;;;;;;;48.03;26.15;;;5.00;99.90;;;;;;5042967;28;20418;-88
2022/01/19 10:30:04;;;;;;;54.63;26.83;;;5.00;99.90;;;;;;5033291;28;20038;-85
2022/01/19 10:32:35;;;;;;;48.35;25.98;;;6.30;99.90;;;;;;5019238;28;20043;-86
2022/01/19 10:35:31;;;;;;;47.92;26.42;;;4.90;99.90;;;;;;5019445;28;20041;-86
2022/01/19 10:38:18;;;;;;;43.40;24.63;;;5.00;99.90;;;;;;5011977;28;20401;-86
2022/01/19 10:41:01;;;;;;;49.55;26.00;;;4.90;99.90;;;;;;5017943;28;20041;-86
2022/01/19 10:43:44;;;;;;;50.00;27.33;;;5.20;99.90;;;;;;5016570;28;20029;-87
2022/01/19 10:46:15;;;;;;;45.65;24.70;;;5.00;99.90;;;;;;5031310;28;20114;-85
2022/01/19 10:48:42;;;;;;;49.45;26.27;;;5.00;99.90;;;;;;5029041;28;20126;-85
2022/01/19 10:51:11;;;;;;;52.67;27.13;;;6.30;99.90;;;;;;5041069;28;20041;-88
2022/01/19 10:53:40;;;;;;;52.78;27.23;;;6.40;99.90;;;;;;5018913;28;20044;-86
2022/01/19 10:56:06;;;;;;;49.17;27.05;;;5.00;99.90;;;;;;5012962;28;20044;-84
2022/01/19 10:58:33;;;;;;;45.85;26.23;;;6.50;99.90;;;;;;5003264;28;20037;-84
2022/01/19 11:01:00;;;;;;;54.38;28.23;;;5.00;99.90;;;;;;5026588;28;20037;-86
2022/01/19 11:03:28;;;;;;;51.22;27.25;;;5.10;99.90;;;;;;5017668;28;20087;-86
2022/01/19 11:05:59;;;;;;;46.35;26.63;;;5.10;99.90;;;;;;5032731;28;20064;-86
2022/01/19 11:08:27;;;;;;;50.03;27.65;;;6.40;99.90;;;;;;5017684;28;20040;-86
2022/01/19 11:10:56;;;;;;;46.13;27.08;;;5.10;99.90;;;;;;5011269;28;20400;-86
2022/01/19 11:13:30;;;;;;;46.67;27.33;;;5.20;99.90;;;;;;5035202;28;20418;-86
2022/01/19 11:15:57;;;;;;;48.00;27.35;;;6.30;99.90;;;;;;5021737;28;20044;-86
2022/01/19 11:18:25;;;;;;;46.15;25.67;;;5.80;99.90;;;;;;5029339;28;20151;-87
2022/01/19 11:20:53;;;;;;;46.83;26.95;;;5.80;99.90;;;;;;5009859;28;20072;-86
2022/01/19 11:23:47;;;;;;;52.33;27.17;;;5.50;99.90;;;;;;5008918;28;20049;-86
2022/01/19 11:26:16;;;;;;;;;;;5.20;99.90;;;;;;5012075;28;20120;-86
2022/01/19 11:28:46;;;;;;;48.05;25.90;;;6.50;99.90;;;;;;5026814;28;20270;-86
2022/01/19 11:31:22;;;;;;;54.50;28.83;;;6.30;99.90;;;;;;5021911;28;20183;-86
2022/01/19 11:33:52;;;;;;;48.83;26.90;;;5.30;99.90;;;;;;5043605;28;20111;-86
2022/01/19 11:36:34;;;;;;;50.60;27.38;;;5.30;99.90;;;;;;5024203;28;20045;-85
2022/01/19 11:39:10;;;;;;;50.75;28.63;;;5.30;99.90;;;;;;5031770;28;20055;-86
2022/01/19 11:41:54;;;;;;;52.17;28.40;;;6.00;99.90;;;;;;5033529;28;20038;-86
2022/01/19 11:44:29;;;;;;;55.97;28.88;;;5.30;99.90;;;;;;5022214;28;20041;-86
2022/01/19 11:47:14;;;;;;;50.72;28.33;;;5.40;99.90;;;;;;5020920;28;20498;-86
2022/01/19 11:49:56;;;;;;;49.85;29.20;;;5.40;99.90;;;;;;5014475;28;20053;-86
2022/01/19 11:52:26;;;;;;;48.65;28.83;;;5.50;99.90;;;;;;5037740;28;20053;-86
2022/01/19 11:55:14;;;;;;;51.20;28.80;;;6.70;99.90;;;;;;5036338;28;20045;-86
2022/01/19 11:57:42;;;;;;;54.30;30.00;;;5.70;99.90;;;;;;5025652;28;20033;-87
2022/01/19 12:00:21;;;;;;;48.50;29.30;;;5.70;99.90;;;;;;5004987;28;20060;-87
2022/01/19 12:02:58;;;;;;;47.70;27.95;;;5.80;99.90;;;;;;5039676;28;20039;-86
2022/01/19 12:05:37;;;;;;;52.20;28.95;;;5.80;99.90;;;;;;5019949;28;20041;-87
2022/01/19 12:08:29;;;;;;;51.17;28.63;;;6.10;99.90;;;;;;5043833;28;20037;-86
2022/01/19 12:11:13;;;;;;;54.25;30.55;;;5.80;99.90;;;;;;5027087;28;20052;-86
2022/01/19 12:19:08;;;;;;;45.70;27.08;;;5.70;99.90;;;;;;5031428;28;20060;-86
2022/01/19 12:21:34;;;;;;;46.00;28.00;;;5.70;99.90;;;;;;5038213;28;20041;-86
2022/01/19 12:24:15;;;;;;;48.95;27.50;;;7.00;99.90;;;;;;5037079;28;20470;-86
2022/01/19 12:26:54;;;;;;;47.00;26.33;;;6.70;99.90;;;;;;5045862;28;20051;-86
2022/01/19 12:29:37;;;;;;;48.00;26.75;;;6.80;99.90;;;;;;5033349;28;20049;-85
2022/01/19 12:32:17;;;;;;;47.75;26.35;;;5.60;99.90;;;;;;5031964;28;20068;-86
2022/01/19 12:34:50;;;;;;;45.40;25.58;;;5.60;99.90;;;;;;5035146;28;20034;-85
2022/01/19 12:37:25;;;;;;;51.38;26.92;;;5.60;99.90;;;;;;5038452;28;20045;-87
2022/01/19 12:39:51;;;;;;;46.40;25.90;;;5.60;99.90;;;;;;5027539;28;20042;-88
2022/01/19 12:42:38;;;;;;;46.03;25.83;;;5.60;99.90;;;;;;5017768;28;20227;-87
2022/01/19 12:45:18;;;;;;;47.72;25.25;;;5.70;99.90;;;;;;5023456;28;20053;-87
2022/01/19 12:47:49;;;;;;;52.67;25.45;;;5.70;99.90;;;;;;5020124;28;20043;-86
2022/01/19 12:50:42;;;;;;;46.63;25.02;;;5.70;99.90;;;;;;5039604;28;20171;-85
2022/01/19 12:53:21;;;;;;;49.42;25.45;;;5.70;99.90;;;;;;5019192;28;20041;-87
2022/01/19 12:55:51;;;;;;;48.38;24.15;;;5.70;99.90;;;;;;5026743;28;20083;-85
2022/01/19 12:58:22;;;;;;;45.20;24.02;;;5.70;99.90;;;;;;5038602;28;20033;-85
2022/01/19 13:00:53;;;;;;;45.53;25.30;;;5.70;99.90;;;;;;5022478;28;20037;-85
2022/01/19 13:03:30;;;;;;;47.85;24.35;;;5.70;99.90;;;;;;5042274;28;20123;-85
2022/01/19 13:06:01;;;;;;;46.03;24.10;;;5.80;99.90;;;;;;5024401;28;20513;-85
2022/01/19 13:08:59;;;;;;;44.60;23.98;;;5.80;99.90;;;;;;5039403;28;20049;-87
2022/01/19 13:11:38;;;;;;;46.47;24.42;;;6.10;99.90;;;;;;5030791;28;20037;-86
2022/01/19 13:14:08;;;;;;;44.20;24.73;;;5.80;99.90;;;;;;5008622;28;20045;-85
2022/01/19 13:16:48;;;;;;;43.67;24.05;;;6.00;99.90;;;;;;5027708;28;20103;-86
2022/01/19 13:19:26;;;;;;;44.70;23.60;;;6.00;99.90;;;;;;5022818;28;20490;-85
2022/01/19 13:22:01;;;;;;;48.92;24.13;;;5.90;99.90;;;;;;5026427;28;20034;-86
2022/01/19 13:24:31;;;;;;;44.25;23.55;;;5.90;99.90;;;;;;5022813;28;20175;-84
2022/01/19 13:27:07;;;;;;;39.78;22.25;;;5.90;99.90;;;;;;5037869;28;20045;-84
2022/01/19 13:29:39;;;;;;;43.58;23.90;;;7.30;99.90;;;;;;5030404;28;20036;-84
2022/01/19 13:32:20;;;;;;;44.65;23.70;;;7.00;99.90;;;;;;5037106;28;20053;-86
2022/01/19 13:34:59;;;;;;;43.45;23.52;;;7.10;99.90;;;;;;5011478;28;20059;-85
2022/01/19 13:37:37;;;;;;;41.55;22.58;;;5.90;99.90;;;;;;5037179;28;20575;-85
2022/01/19 13:40:13;;;;;;;44.58;22.83;;;5.90;99.90;;;;;;5023492;28;20038;-85
2022/01/19 13:42:44;;;;;;;44.22;23.83;;;5.90;99.90;;;;;;5039073;28;20473;-86
2022/01/19 13:45:31;;;;;;;44.95;24.85;;;5.90;99.90;;;;;;5028881;28;20039;-86
2022/01/19 13:50:45;;;;;;;46.08;23.63;;;5.80;99.90;;;;;;5034213;28;20041;-84
2022/01/19 13:53:12;;;;;;;42.65;23.65;;;5.80;99.90;;;;;;5035875;28;20421;-87
2022/01/19 13:55:39;;;;;;;46.63;23.13;;;5.80;99.90;;;;;;5016050;28;20446;-87
2022/01/19 13:58:15;;;;;;;45.10;24.13;;;5.80;99.90;;;;;;5040845;28;20037;-87
2022/01/19 14:00:58;;;;;;;45.83;23.58;;;5.80;99.90;;;;;;5028865;28;20390;-87
2022/01/19 14:03:43;;;;;;;43.35;23.40;;;5.80;99.90;;;;;;5044017;28;20494;-88
2022/01/19 14:06:23;;;;;;;48.42;24.33;;;6.20;99.90;;;;;;5029114;28;20048;-87
2022/01/19 14:08:49;;;;;;;45.80;24.13;;;6.80;99.90;;;;;;5039185;28;20072;-86
2022/01/19 14:11:25;;;;;;;49.55;25.52;;;5.60;99.90;;;;;;5009657;28;20040;-86
2022/01/19 14:14:05;;;;;;;45.72;23.90;;;6.00;99.90;;;;;;5035501;28;20160;-85
2022/01/19 14:16:37;;;;;;;48.15;24.67;;;5.60;99.90;;;;;;4998194;28;20081;-86
2022/01/19 14:19:15;;;;;;;44.08;23.70;;;5.60;99.90;;;;;;5000943;28;20053;-87
2022/01/19 14:21:58;;;;;;;49.00;25.55;;;5.60;99.90;;;;;;5037022;28;20067;-88
2022/01/19 14:24:25;;;;;;;49.72;25.73;;;5.60;99.90;;;;;;5018855;28;20123;-86
2022/01/19 14:26:52;;;;;;;47.78;23.63;;;5.60;99.90;;;;;;5038933;28;20497;-85
2022/01/19 14:29:18;;;;;;;47.22;23.42;;;5.60;99.90;;;;;;5035889;28;20069;-85
2022/01/19 14:31:52;;;;;;;50.05;24.50;;;5.50;99.90;;;;;;5013118;28;20075;-85
2022/01/19 14:34:40;;;;;;;49.38;23.92;;;5.60;99.90;;;;;;5003359;28;20055;-85